Time;durP1;ratioP1;P1;durP2;ratioP2;P2;SDS_P1;SDS_P2;PMS_P1;PMS_P2;Temp;Humidity;BMP_temperature;BMP_pressure;BME280_temperature;BME280_humidity;BME280_pressure;Samples;Min_cycle;Max_cycle;Signal;HPM_P1;HPM_P2
2022/02/27 10:11:39;;;;;;;11.40;10.60;;;9.60;83.90;;;;;;5148942;27;20877;-76
2022/02/27 10:14:06;;;;;;;10.53;9.80;;;9.60;83.40;;;;;;5148866;27;20440;-76
2022/02/27 10:16:33;;;;;;;9.27;8.83;;;9.80;80.30;;;;;;5148661;27;20839;-76
2022/02/27 10:19:01;;;;;;;11.40;10.60;;;9.90;80.70;;;;;;5149064;27;20446;-76
2022/02/27 10:21:30;;;;;;;10.23;9.60;;;9.10;81.60;;;;;;5149161;27;21038;-75
2022/02/27 10:23:59;;;;;;;11.40;10.60;;;9.50;82.50;;;;;;5149134;27;20814;-75
2022/02/27 10:26:28;;;;;;;10.30;9.70;;;9.80;81.30;;;;;;5148909;27;20432;-76
2022/02/27 10:29:08;;;;;;;10.57;9.87;;;10.10;79.70;;;;;;5148452;27;20443;-75
2022/02/27 10:31:35;;;;;;;11.03;10.30;;;10.60;78.40;;;;;;5148514;27;20791;-76
2022/02/27 10:34:12;;;;;;;11.20;10.40;;;11.20;77.20;;;;;;5148394;27;20496;-75
2022/02/27 10:36:57;;;;;;;10.10;9.60;;;10.80;74.10;;;;;;5148636;27;20451;-75
2022/02/27 10:39:32;;;;;;;10.97;10.07;;;10.00;75.00;;;;;;5148293;27;20440;-75
2022/02/27 10:42:14;;;;;;;9.80;9.30;;;9.80;77.40;;;;;;5148599;27;20443;-75
2022/02/27 10:44:44;;;;;;;9.93;9.33;;;9.70;76.70;;;;;;5148493;27;20451;-75
2022/02/27 10:47:16;;;;;;;9.67;9.07;;;9.80;76.80;;;;;;5148443;27;20460;-76
2022/02/27 10:49:45;;;;;;;10.87;9.97;;;10.10;72.80;;;;;;5148389;27;20857;-75
2022/02/27 10:52:15;;;;;;;10.70;10.00;;;10.00;71.80;;;;;;5148229;27;20502;-75
2022/02/27 10:54:43;;;;;;;9.73;9.23;;;10.20;70.40;;;;;;5148495;27;20454;-75
2022/02/27 10:57:12;;;;;;;9.30;8.90;;;9.80;67.80;;;;;;5148122;27;20450;-75
2022/02/27 10:59:40;;;;;;;9.83;9.20;;;9.70;68.30;;;;;;5148000;27;20439;-75
2022/02/27 11:02:11;;;;;;;8.30;7.80;;;9.60;68.70;;;;;;5147766;27;20943;-75
2022/02/27 11:04:38;;;;;;;9.43;8.83;;;10.00;66.70;;;;;;5147963;27;20534;-76
2022/02/27 11:07:05;;;;;;;10.60;10.10;;;10.00;67.00;;;;;;5147880;27;20582;-76
2022/02/27 11:09:33;;;;;;;10.33;9.63;;;10.20;66.20;;;;;;5147449;27;20495;-76
2022/02/27 11:12:02;;;;;;;9.47;8.87;;;10.40;64.40;;;;;;5137515;27;20448;-76
2022/02/27 11:14:30;;;;;;;10.00;9.40;;;11.30;63.70;;;;;;5133825;27;20540;-76
2022/02/27 11:16:58;;;;;;;9.87;9.27;;;11.20;60.50;;;;;;5134046;27;20488;-75
2022/02/27 11:19:27;;;;;;;10.47;9.70;;;10.60;60.00;;;;;;5133811;27;20448;-75
2022/02/27 11:21:54;;;;;;;9.00;8.60;;;10.20;62.10;;;;;;5133546;27;20535;-75
2022/02/27 11:24:21;;;;;;;10.00;9.40;;;10.40;61.90;;;;;;5133647;27;20444;-76
2022/02/27 11:26:48;;;;;;;9.90;9.30;;;10.70;60.50;;;;;;5133533;27;20974;-75
2022/02/27 11:29:15;;;;;;;9.93;9.50;;;10.50;61.40;;;;;;5133882;27;20471;-75
2022/02/27 11:31:43;;;;;;;10.10;9.60;;;10.40;61.10;;;;;;5133751;27;20522;-75
2022/02/27 11:34:14;;;;;;;10.07;9.47;;;10.30;60.50;;;;;;5133437;27;20547;-75
2022/02/27 11:36:45;;;;;;;9.10;8.70;;;10.90;60.80;;;;;;5133617;27;20452;-75
2022/02/27 11:40:27;;;;;;;9.87;9.37;;;11.40;59.50;;;;;;5133334;27;20448;-75
2022/02/27 11:42:01;;;;;;;9.67;9.13;;;11.20;59.70;;;;;;5133179;27;20444;-75
2022/02/27 11:44:35;;;;;;;10.13;9.10;;;10.50;59.60;;;;;;5133469;27;20505;-74
2022/02/27 11:47:08;;;;;;;10.40;9.90;;;10.40;60.40;;;;;;5132967;27;20867;-77
2022/02/27 11:49:36;;;;;;;10.47;9.87;;;10.40;61.50;;;;;;5132200;27;20462;-78
2022/02/27 11:52:12;;;;;;;9.90;9.30;;;11.00;61.70;;;;;;5132365;27;20551;-77
2022/02/27 11:54:49;;;;;;;10.97;10.27;;;11.20;60.80;;;;;;5133262;27;20438;-76
2022/02/27 11:57:19;;;;;;;10.93;10.23;;;11.40;61.70;;;;;;5133101;27;20436;-77
2022/02/27 12:00:06;;;;;;;11.27;10.57;;;11.80;61.20;;;;;;5133062;27;20478;-76
2022/02/27 12:02:47;;;;;;;11.80;10.80;;;11.70;60.10;;;;;;5133518;27;20978;-75
2022/02/27 12:05:16;;;;;;;11.33;10.73;;;11.60;60.30;;;;;;5133786;27;20455;-75
2022/02/27 12:08:07;;;;;;;10.53;10.03;;;11.60;61.30;;;;;;5133099;27;20475;-76
2022/02/27 12:10:35;;;;;;;12.03;11.33;;;11.80;61.30;;;;;;5133288;27;20845;-76
2022/02/27 12:13:03;;;;;;;10.53;9.83;;;12.10;60.80;;;;;;5133971;27;20459;-75
2022/02/27 12:15:33;;;;;;;9.97;9.47;;;11.70;61.00;;;;;;5133263;27;20497;-76
2022/02/27 12:18:02;;;;;;;12.30;11.37;;;11.90;60.90;;;;;;5132471;27;20444;-75
2022/02/27 12:20:58;;;;;;;10.97;10.37;;;11.90;61.00;;;;;;5132572;27;20445;-76
2022/02/27 12:23:51;;;;;;;11.80;11.10;;;11.90;61.80;;;;;;5131201;27;20568;-75
2022/02/27 12:26:53;;;;;;;11.97;11.17;;;12.70;59.60;;;;;;5131972;27;20480;-76
2022/02/27 12:29:25;;;;;;;13.63;12.57;;;12.60;59.00;;;;;;5131978;27;20711;-76
2022/02/27 12:31:52;;;;;;;12.40;11.53;;;13.00;59.40;;;;;;5131800;27;20510;-75
2022/02/27 12:34:20;;;;;;;12.67;11.90;;;12.60;59.10;;;;;;5131846;27;20500;-75
2022/02/27 12:36:50;;;;;;;12.10;11.40;;;12.10;60.40;;;;;;5132018;27;20440;-75
2022/02/27 12:39:19;;;;;;;11.57;10.90;;;13.00;59.50;;;;;;5131920;27;20441;-76
2022/02/27 12:41:47;;;;;;;10.97;10.30;;;14.10;58.10;;;;;;5132189;27;20441;-75
2022/02/27 12:44:19;;;;;;;11.20;10.70;;;13.20;53.60;;;;;;5132107;27;20452;-75
2022/02/27 12:46:46;;;;;;;12.20;11.40;;;12.00;56.60;;;;;;5131954;27;20444;-75
2022/02/27 12:52:00;;;;;;;11.13;10.37;;;11.60;56.90;;;;;;5131619;27;20480;-75
2022/02/27 12:54:34;;;;;;;11.10;10.50;;;11.70;57.00;;;;;;5131618;27;20547;-75
2022/02/27 12:57:04;;;;;;;13.00;12.03;;;12.20;57.00;;;;;;5131700;27;20456;-75
2022/02/27 12:59:32;;;;;;;11.70;10.90;;;12.30;57.20;;;;;;5131511;27;20452;-75
2022/02/27 13:01:59;;;;;;;11.93;11.23;;;12.50;55.40;;;;;;5131625;27;20460;-75
2022/02/27 13:04:29;;;;;;;11.50;10.90;;;12.00;56.20;;;;;;5131626;27;20449;-75
2022/02/27 13:07:00;;;;;;;10.90;10.23;;;12.30;55.80;;;;;;5131462;27;20998;-75
2022/02/27 13:09:30;;;;;;;11.00;10.50;;;11.80;55.20;;;;;;5131408;27;20451;-75
2022/02/27 13:11:57;;;;;;;11.07;10.47;;;11.60;55.50;;;;;;5131696;27;20476;-76
2022/02/27 13:14:25;;;;;;;11.20;10.53;;;11.60;55.80;;;;;;5131267;27;20444;-76
2022/02/27 13:16:53;;;;;;;10.03;9.40;;;11.50;55.60;;;;;;5131248;27;20467;-76
2022/02/27 13:19:31;;;;;;;10.27;9.67;;;11.20;55.60;;;;;;5131002;27;20452;-76
2022/02/27 13:21:58;;;;;;;11.37;10.67;;;10.90;55.60;;;;;;5131352;27;20519;-75
2022/02/27 13:24:37;;;;;;;10.73;10.13;;;11.00;55.90;;;;;;5131209;27;20587;-75
2022/02/27 13:27:08;;;;;;;10.27;9.77;;;11.20;54.70;;;;;;5131150;27;20444;-76
2022/02/27 13:29:48;;;;;;;8.90;8.30;;;10.70;55.00;;;;;;5130888;27;20455;-77
2022/02/27 13:32:18;;;;;;;10.87;10.27;;;10.40;56.10;;;;;;5130957;27;20449;-76
2022/02/27 13:34:45;;;;;;;10.83;10.13;;;10.40;56.40;;;;;;5130839;27;20454;-76
2022/02/27 13:37:12;;;;;;;10.77;10.17;;;10.30;56.30;;;;;;5130812;27;20468;-77
2022/02/27 13:39:40;;;;;;;10.70;10.00;;;10.50;57.10;;;;;;5130513;27;20452;-76
2022/02/27 13:42:07;;;;;;;10.47;9.57;;;10.70;57.20;;;;;;5130555;27;21166;-77
2022/02/27 13:44:34;;;;;;;10.80;10.00;;;10.40;56.50;;;;;;5130486;27;20475;-76
2022/02/27 13:47:00;;;;;;;11.73;10.87;;;9.80;57.90;;;;;;5130936;27;20440;-76
2022/02/27 13:49:30;;;;;;;9.80;9.20;;;9.30;59.80;;;;;;5130854;27;20787;-76
2022/02/27 13:51:57;;;;;;;10.30;9.77;;;9.00;60.90;;;;;;5130478;27;20484;-76
2022/02/27 13:54:27;;;;;;;10.70;9.90;;;8.90;62.30;;;;;;5130495;27;20505;-76
2022/02/27 13:57:08;;;;;;;9.97;9.37;;;8.80;64.10;;;;;;5130164;27;20456;-76
2022/02/27 13:59:45;;;;;;;9.27;8.67;;;8.80;65.10;;;;;;5130770;27;20797;-76
2022/02/27 14:02:12;;;;;;;11.10;10.13;;;8.80;64.70;;;;;;5130817;27;20465;-76
2022/02/27 14:05:23;;;;;;;10.73;10.03;;;8.70;64.70;;;;;;5130390;27;20954;-75
2022/02/27 14:07:52;;;;;;;10.40;9.57;;;8.70;65.90;;;;;;5130569;27;20540;-75
2022/02/27 14:10:24;;;;;;;10.20;9.70;;;8.90;67.00;;;;;;5130243;27;20899;-76
2022/02/27 14:13:05;;;;;;;9.83;9.23;;;8.90;65.70;;;;;;5130020;27;20477;-74
2022/02/27 14:15:35;;;;;;;9.77;9.27;;;8.90;66.60;;;;;;5130294;27;20548;-75
2022/02/27 14:18:20;;;;;;;10.13;9.53;;;8.80;66.50;;;;;;5130261;27;20507;-76
2022/02/27 14:20:47;;;;;;;10.20;9.33;;;8.80;67.80;;;;;;5130298;27;20452;-76
2022/02/27 14:23:15;;;;;;;10.30;9.80;;;9.00;67.10;;;;;;5130514;27;20445;-75
2022/02/27 14:25:49;;;;;;;10.60;9.80;;;8.80;65.80;;;;;;5130317;27;20452;-76
2022/02/27 14:28:18;;;;;;;10.20;9.40;;;8.70;66.20;;;;;;5130289;27;20448;-75
2022/02/27 14:30:46;;;;;;;9.80;9.10;;;8.80;66.00;;;;;;5130449;27;20560;-75
2022/02/27 14:33:14;;;;;;;9.80;9.20;;;8.80;66.20;;;;;;5130247;27;20476;-76
2022/02/27 14:35:43;;;;;;;11.10;10.47;;;8.80;65.40;;;;;;5130210;27;20779;-75
2022/02/27 14:38:12;;;;;;;10.57;9.97;;;8.70;65.70;;;;;;5130400;27;20440;-76
2022/02/27 14:40:40;;;;;;;10.10;9.60;;;8.70;65.50;;;;;;5130217;27;20810;-75
2022/02/27 14:43:07;;;;;;;11.00;10.13;;;8.70;65.80;;;;;;5129843;27;20459;-75
2022/02/27 14:45:35;;;;;;;10.80;10.20;;;8.70;66.60;;;;;;5130221;27;20456;-73
2022/02/27 14:48:02;;;;;;;10.50;9.70;;;8.70;66.70;;;;;;5133918;27;20448;-75
2022/02/27 14:50:29;;;;;;;11.00;10.30;;;8.80;66.90;;;;;;5134058;27;20454;-76
2022/02/27 14:52:56;;;;;;;10.00;9.43;;;8.90;66.60;;;;;;5133840;27;20440;-75
2022/02/27 14:55:23;;;;;;;10.40;9.83;;;9.00;64.70;;;;;;5133607;27;20457;-75
2022/02/27 14:57:51;;;;;;;9.47;9.00;;;9.00;63.60;;;;;;5133821;27;20452;-74
2022/02/27 15:00:18;;;;;;;9.77;8.97;;;9.00;60.40;;;;;;5133682;27;20452;-75
2022/02/27 15:02:46;;;;;;;9.23;8.73;;;8.90;60.00;;;;;;5133720;27;20491;-75
2022/02/27 15:05:14;;;;;;;11.03;10.43;;;8.90;61.40;;;;;;5133687;27;20497;-76
2022/02/27 15:07:42;;;;;;;10.70;10.20;;;8.80;64.70;;;;;;5133560;27;20505;-74
2022/02/27 15:10:10;;;;;;;11.93;10.93;;;8.80;66.30;;;;;;5133333;27;20512;-75
2022/02/27 15:12:37;;;;;;;10.27;9.57;;;8.80;67.10;;;;;;5133219;27;20933;-75
2022/02/27 15:15:04;;;;;;;9.77;9.27;;;8.70;66.80;;;;;;5133266;27;21031;-75
2022/02/27 15:17:31;;;;;;;11.23;10.53;;;8.70;67.60;;;;;;5133423;27;20448;-74
2022/02/27 15:19:59;;;;;;;10.93;10.20;;;8.70;67.60;;;;;;5133565;27;20862;-74
2022/02/27 15:22:26;;;;;;;9.17;8.57;;;8.70;67.30;;;;;;5133494;27;20444;-75
2022/02/27 15:24:53;;;;;;;10.03;9.43;;;8.60;67.70;;;;;;5133333;27;20919;-75
2022/02/27 15:27:20;;;;;;;10.23;9.63;;;8.60;67.70;;;;;;5133875;27;20452;-74
2022/02/27 15:29:47;;;;;;;10.10;9.60;;;8.70;68.40;;;;;;5137534;27;20463;-74
2022/02/27 15:32:14;;;;;;;10.50;9.90;;;8.70;68.50;;;;;;5139741;27;20991;-75
2022/02/27 15:34:43;;;;;;;10.23;9.63;;;8.70;68.00;;;;;;5133483;27;20468;-75
2022/02/27 15:37:13;;;;;;;10.30;9.70;;;8.50;68.30;;;;;;5133457;27;20479;-75
2022/02/27 15:39:40;;;;;;;10.80;10.10;;;8.50;68.90;;;;;;5133156;27;20559;-75
2022/02/27 15:42:07;;;;;;;10.37;9.63;;;8.50;69.10;;;;;;5133221;27;20450;-76
2022/02/27 15:44:34;;;;;;;9.90;9.20;;;8.50;68.80;;;;;;5132956;27;20448;-75
2022/02/27 15:47:04;;;;;;;10.23;9.63;;;8.40;69.30;;;;;;5132936;27;20445;-75
2022/02/27 15:49:31;;;;;;;9.93;9.40;;;8.40;68.60;;;;;;5133189;27;20452;-74
2022/02/27 15:51:58;;;;;;;9.13;8.63;;;8.30;68.30;;;;;;5133153;27;20483;-76
2022/02/27 15:54:28;;;;;;;9.70;9.17;;;8.30;69.20;;;;;;5132823;27;20441;-76
2022/02/27 15:56:55;;;;;;;10.67;9.77;;;8.30;69.00;;;;;;5132848;27;20448;-75
2022/02/27 15:59:21;;;;;;;9.33;8.67;;;8.30;69.00;;;;;;5132936;27;20437;-76
2022/02/27 16:01:48;;;;;;;8.80;8.40;;;8.30;69.20;;;;;;5132720;27;20468;-76
2022/02/27 16:04:15;;;;;;;9.53;9.03;;;8.20;68.60;;;;;;5133124;27;20497;-77
2022/02/27 16:06:41;;;;;;;9.87;9.37;;;8.10;68.80;;;;;;5132884;27;20935;-75
2022/02/27 16:09:09;;;;;;;10.10;9.50;;;8.10;68.70;;;;;;5132584;27;20443;-76
2022/02/27 16:11:37;;;;;;;9.10;8.53;;;8.10;68.40;;;;;;5132372;27;20579;-78
2022/02/27 16:14:03;;;;;;;9.90;9.30;;;8.00;68.80;;;;;;5133091;27;20505;-76
2022/02/27 16:16:30;;;;;;;11.43;10.63;;;8.00;67.70;;;;;;5132619;27;20815;-76
2022/02/27 16:18:57;;;;;;;10.23;9.53;;;7.90;67.40;;;;;;5132682;27;20452;-76
2022/02/27 16:21:24;;;;;;;9.77;9.07;;;7.90;68.10;;;;;;5132334;27;20534;-74
2022/02/27 16:23:50;;;;;;;9.33;8.83;;;7.80;68.50;;;;;;5132381;27;20440;-77
2022/02/27 16:26:17;;;;;;;10.73;10.10;;;7.80;67.60;;;;;;5132189;27;20448;-76
2022/02/27 16:28:46;;;;;;;10.40;9.80;;;7.80;68.20;;;;;;5132513;27;20835;-76
2022/02/27 16:31:12;;;;;;;9.37;8.73;;;7.70;68.50;;;;;;5132366;27;20480;-76
2022/02/27 16:33:39;;;;;;;10.27;9.67;;;7.60;69.00;;;;;;5132029;27;20452;-76
2022/02/27 16:36:06;;;;;;;10.13;9.53;;;7.50;70.00;;;;;;5132229;27;20445;-75
2022/02/27 16:38:33;;;;;;;11.27;10.67;;;7.50;69.00;;;;;;5132243;27;20515;-77
2022/02/27 16:41:00;;;;;;;9.90;9.17;;;7.50;69.80;;;;;;5132252;27;20443;-76
2022/02/27 16:43:26;;;;;;;10.30;9.60;;;7.40;69.80;;;;;;5132178;27;20440;-74
2022/02/27 16:45:55;;;;;;;10.40;9.80;;;7.30;69.50;;;;;;5131893;27;20463;-77
2022/02/27 16:48:22;;;;;;;10.77;10.07;;;7.20;69.80;;;;;;5131944;27;20693;-77
2022/02/27 16:50:49;;;;;;;10.43;9.70;;;7.20;69.90;;;;;;5132068;27;20454;-76
2022/02/27 16:53:16;;;;;;;10.57;9.77;;;7.20;70.30;;;;;;5131975;27;21000;-75
2022/02/27 16:55:43;;;;;;;10.93;10.20;;;7.10;70.30;;;;;;5131937;27;20444;-76
2022/02/27 16:58:10;;;;;;;12.67;11.63;;;6.90;71.10;;;;;;5131641;27;20442;-76
2022/02/27 17:00:37;;;;;;;9.60;8.90;;;6.80;71.50;;;;;;5131746;27;20500;-76
2022/02/27 17:03:05;;;;;;;11.00;10.40;;;6.80;71.80;;;;;;5131543;27;20459;-76
2022/02/27 17:05:32;;;;;;;10.70;10.10;;;6.80;72.00;;;;;;5131736;27;20443;-75
2022/02/27 17:07:58;;;;;;;10.23;9.60;;;6.70;72.10;;;;;;5131853;27;20942;-74
2022/02/27 17:10:25;;;;;;;10.17;9.57;;;6.60;72.50;;;;;;5130918;27;20483;-76
2022/02/27 17:12:53;;;;;;;10.47;9.97;;;6.50;72.60;;;;;;5131554;27;20921;-75
2022/02/27 17:15:20;;;;;;;10.83;10.23;;;6.50;72.40;;;;;;5131565;27;20462;-74
2022/02/27 17:17:46;;;;;;;11.07;10.37;;;6.50;72.10;;;;;;5131604;27;20449;-75
2022/02/27 17:20:15;;;;;;;11.50;10.70;;;6.50;72.10;;;;;;5131714;27;20458;-75
2022/02/27 17:22:41;;;;;;;10.30;9.60;;;6.40;72.30;;;;;;5131755;27;20499;-75
2022/02/27 17:25:09;;;;;;;11.23;10.57;;;6.40;72.40;;;;;;5131381;27;20848;-75
2022/02/27 17:27:36;;;;;;;11.77;11.07;;;6.40;72.30;;;;;;5131212;27;20459;-76
2022/02/27 17:30:06;;;;;;;10.70;9.90;;;6.40;71.60;;;;;;5130985;27;20883;-75
2022/02/27 17:32:32;;;;;;;10.40;9.70;;;6.30;72.20;;;;;;5130990;27;20560;-77
2022/02/27 17:34:59;;;;;;;10.83;10.13;;;6.20;72.50;;;;;;5131615;27;20467;-76
2022/02/27 17:37:27;;;;;;;9.93;9.33;;;6.10;72.30;;;;;;5131405;27;20932;-75
2022/02/27 17:39:54;;;;;;;10.53;9.83;;;6.10;72.30;;;;;;5131164;27;20451;-75
2022/02/27 17:42:21;;;;;;;11.00;10.20;;;6.00;72.40;;;;;;5131043;27;21178;-76
2022/02/27 17:44:47;;;;;;;10.57;9.97;;;5.90;72.80;;;;;;5130973;27;20512;-76
2022/02/27 17:47:14;;;;;;;10.80;10.10;;;5.80;73.30;;;;;;5131393;27;20456;-75
2022/02/27 17:49:41;;;;;;;9.73;9.13;;;5.70;74.20;;;;;;5131275;27;20526;-76
2022/02/27 17:52:07;;;;;;;11.10;10.07;;;5.70;75.00;;;;;;5130960;27;20488;-76
2022/02/27 17:54:35;;;;;;;12.10;11.20;;;5.50;76.40;;;;;;5130946;27;20830;-75
2022/02/27 17:57:02;;;;;;;10.87;10.17;;;5.50;77.30;;;;;;5130921;27;20453;-76
